Time;durP1;ratioP1;P1;durP2;ratioP2;P2;SDS_P1;SDS_P2;PMS_P1;PMS_P2;Temp;Humidity;BMP_temperature;BMP_pressure;BME280_temperature;BME280_humidity;BME280_pressure;Samples;Min_cycle;Max_cycle;Signal;HPM_P1;HPM_P2
2022/10/12 00:00:56;;;;;;;3.07;1.80;;;8.50;99.90;;;;;;4988124;28;20239;-86
2022/10/12 00:03:22;;;;;;;3.00;2.47;;;8.50;99.90;;;;;;4995574;28;20294;-87
2022/10/12 00:06:15;;;;;;;2.63;2.07;;;8.50;99.90;;;;;;4998923;28;20512;-87
2022/10/12 00:08:43;;;;;;;2.23;2.13;;;8.50;99.90;;;;;;4998817;28;20222;-85
2022/10/12 00:11:13;;;;;;;3.63;2.03;;;8.50;99.90;;;;;;4998825;28;20219;-85
2022/10/12 00:13:39;;;;;;;7.40;2.50;;;8.40;99.90;;;;;;4994986;28;20693;-86
2022/10/12 00:16:06;;;;;;;2.40;2.20;;;8.40;99.90;;;;;;4987242;28;20192;-87
2022/10/12 00:18:33;;;;;;;2.57;2.37;;;8.40;99.90;;;;;;4987727;28;20289;-86
2022/10/12 00:21:08;;;;;;;5.63;3.20;;;8.30;99.90;;;;;;4993625;28;20401;-87
2022/10/12 00:23:35;;;;;;;3.30;2.30;;;8.30;99.90;;;;;;4997880;28;20293;-87
2022/10/12 00:26:07;;;;;;;4.43;2.00;;;8.30;99.90;;;;;;4995685;28;20219;-86
2022/10/12 00:28:34;;;;;;;4.80;2.03;;;8.30;99.90;;;;;;4998982;28;20184;-87
2022/10/12 00:31:00;;;;;;;9.07;2.23;;;8.30;99.90;;;;;;4988516;28;20196;-86
2022/10/12 00:33:28;;;;;;;2.03;1.50;;;8.40;99.90;;;;;;4953663;28;20236;-87
2022/10/12 00:35:54;;;;;;;3.27;2.87;;;8.40;99.90;;;;;;4985650;28;20229;-87
2022/10/12 00:38:21;;;;;;;2.23;2.03;;;8.40;99.90;;;;;;4996639;28;20223;-85
2022/10/12 00:40:47;;;;;;;4.40;2.70;;;8.40;99.90;;;;;;5012947;28;20295;-86
2022/10/12 00:43:33;;;;;;;3.87;2.93;;;8.40;99.90;;;;;;4998336;28;20334;-87
2022/10/12 00:46:02;;;;;;;7.47;2.67;;;8.50;99.90;;;;;;5013267;28;20239;-85
2022/10/12 00:48:28;;;;;;;5.40;2.07;;;8.50;99.90;;;;;;5012710;28;20301;-87
2022/10/12 00:50:56;;;;;;;9.80;3.30;;;8.50;99.90;;;;;;4997106;28;20740;-87
2022/10/12 00:53:25;;;;;;;2.63;1.77;;;8.50;99.90;;;;;;4992022;28;20243;-87
2022/10/12 00:55:56;;;;;;;6.97;3.07;;;8.50;99.90;;;;;;4986430;28;20216;-87
2022/10/12 00:58:23;;;;;;;3.20;3.00;;;8.50;99.90;;;;;;4985936;28;20183;-87
2022/10/12 01:00:49;;;;;;;3.40;2.63;;;8.50;99.90;;;;;;4987940;28;20192;-86
2022/10/12 01:03:18;;;;;;;2.93;2.53;;;8.50;99.90;;;;;;4954215;28;20234;-87
2022/10/12 01:05:44;;;;;;;1.87;1.77;;;8.50;99.90;;;;;;4984097;28;20314;-87
2022/10/12 01:08:10;;;;;;;5.40;2.07;;;8.60;99.90;;;;;;4997350;28;20705;-86
2022/10/12 01:10:36;;;;;;;5.33;2.50;;;8.60;99.90;;;;;;4996110;28;20187;-86
2022/10/12 01:13:02;;;;;;;10.50;2.90;;;8.60;99.90;;;;;;4986357;28;20235;-86
2022/10/12 01:15:38;;;;;;;8.90;3.13;;;8.60;99.90;;;;;;4954315;28;20223;-86
2022/10/12 01:18:22;;;;;;;8.73;2.47;;;8.60;99.90;;;;;;4986324;28;20216;-85
2022/10/12 01:21:07;;;;;;;4.60;2.00;;;8.70;99.90;;;;;;4978566;28;21014;-87
2022/10/12 01:23:42;;;;;;;2.67;2.30;;;8.70;99.90;;;;;;4987140;28;20223;-86
2022/10/12 01:26:21;;;;;;;2.13;1.90;;;8.70;99.90;;;;;;4990608;28;20254;-87
2022/10/12 01:29:03;;;;;;;2.53;2.33;;;8.70;99.90;;;;;;4994508;28;20219;-88
2022/10/12 01:31:38;;;;;;;2.77;2.57;;;8.70;99.90;;;;;;4987067;28;20188;-87
2022/10/12 01:34:25;;;;;;;9.27;2.47;;;8.70;99.90;;;;;;5002366;28;20228;-88
2022/10/12 01:37:06;;;;;;;2.07;1.63;;;8.70;99.90;;;;;;4987203;28;20558;-87
2022/10/12 01:39:47;;;;;;;4.43;2.37;;;8.60;99.90;;;;;;4994889;28;20223;-88
2022/10/12 01:42:18;;;;;;;4.23;2.50;;;8.70;99.90;;;;;;5010860;28;20739;-87
2022/10/12 01:44:44;;;;;;;1.80;1.63;;;8.60;99.90;;;;;;5012522;28;20285;-85
2022/10/12 01:47:10;;;;;;;2.70;2.50;;;8.60;99.90;;;;;;4966796;28;20566;-86
2022/10/12 01:49:36;;;;;;;2.20;2.00;;;8.60;99.90;;;;;;4953141;28;20193;-85
2022/10/12 01:52:24;;;;;;;2.53;1.90;;;8.60;99.90;;;;;;4995033;28;20654;-87
2022/10/12 01:55:09;;;;;;;2.63;2.43;;;8.60;99.90;;;;;;4995213;28;20239;-87
2022/10/12 01:57:43;;;;;;;2.80;2.17;;;8.60;99.90;;;;;;4997460;28;20418;-86
2022/10/12 02:00:15;;;;;;;3.30;2.50;;;8.60;99.90;;;;;;4996436;28;20310;-87
2022/10/12 02:02:53;;;;;;;2.90;2.60;;;8.60;99.90;;;;;;4993687;28;20224;-87
2022/10/12 02:05:23;;;;;;;2.23;1.90;;;8.60;99.90;;;;;;4988823;28;20231;-87
2022/10/12 02:07:55;;;;;;;5.97;2.63;;;8.60;99.90;;;;;;4987950;28;20262;-87
2022/10/12 02:10:44;;;;;;;2.70;2.50;;;8.60;99.90;;;;;;4995076;28;20823;-87
2022/10/12 02:13:14;;;;;;;5.73;2.03;;;8.60;99.90;;;;;;5002367;28;20216;-86
2022/10/12 02:15:41;;;;;;;2.20;1.83;;;8.60;99.90;;;;;;4985625;28;20216;-87
2022/10/12 02:18:11;;;;;;;5.83;2.27;;;8.60;99.90;;;;;;4986563;28;20788;-88
2022/10/12 02:20:39;;;;;;;3.37;2.50;;;8.60;99.90;;;;;;4985612;28;20231;-88
2022/10/12 02:23:06;;;;;;;19.37;2.87;;;8.60;99.90;;;;;;4989452;28;20266;-87
2022/10/12 02:25:33;;;;;;;3.60;1.83;;;8.60;99.90;;;;;;4974453;28;20267;-85
2022/10/12 02:28:06;;;;;;;6.17;2.93;;;8.60;99.90;;;;;;4968206;28;20196;-86
2022/10/12 02:30:43;;;;;;;3.13;2.27;;;8.60;99.90;;;;;;4987485;28;20227;-88
2022/10/12 02:33:27;;;;;;;3.87;2.60;;;8.50;99.90;;;;;;4989554;28;20288;-86
2022/10/12 02:36:04;;;;;;;10.90;2.40;;;8.50;99.90;;;;;;4987132;28;20626;-87
2022/10/12 02:39:03;;;;;;;2.33;2.13;;;8.50;99.90;;;;;;4998980;28;20226;-87
2022/10/12 02:41:32;;;;;;;6.60;2.50;;;8.50;99.90;;;;;;5013273;28;20277;-85
2022/10/12 02:44:07;;;;;;;2.03;1.83;;;8.50;99.90;;;;;;5001176;28;20610;-87
2022/10/12 02:46:34;;;;;;;2.07;1.90;;;8.50;99.90;;;;;;4999619;28;20193;-85
2022/10/12 02:49:03;;;;;;;5.80;2.77;;;8.50;99.90;;;;;;5014991;28;20751;-86
2022/10/12 02:51:30;;;;;;;3.20;2.87;;;8.50;99.90;;;;;;4990587;28;20216;-86
2022/10/12 02:53:55;;;;;;;6.63;4.07;;;8.50;99.90;;;;;;4959466;28;20247;-87
2022/10/12 02:56:22;;;;;;;3.93;2.57;;;8.50;99.90;;;;;;4952803;28;20216;-87
2022/10/12 02:58:48;;;;;;;2.33;2.10;;;8.50;99.90;;;;;;4972563;28;21198;-87
2022/10/12 03:01:18;;;;;;;8.80;2.57;;;8.50;99.90;;;;;;4990339;28;20228;-87
2022/10/12 03:03:44;;;;;;;2.33;2.23;;;8.50;99.90;;;;;;5000043;28;20287;-87
2022/10/12 03:06:10;;;;;;;2.73;2.53;;;8.40;99.90;;;;;;5000408;28;20230;-87
2022/10/12 03:08:36;;;;;;;5.77;3.63;;;8.40;99.90;;;;;;4989045;28;20232;-87
2022/10/12 03:11:07;;;;;;;4.13;2.53;;;8.40;99.90;;;;;;4979472;28;20233;-87
2022/10/12 03:13:33;;;;;;;3.23;2.80;;;8.40;99.90;;;;;;4998776;28;20226;-87
2022/10/12 03:16:07;;;;;;;2.27;1.87;;;8.30;99.90;;;;;;4989835;28;20195;-87
2022/10/12 03:18:33;;;;;;;2.60;2.40;;;8.30;99.90;;;;;;4988139;28;20314;-86
2022/10/12 03:20:59;;;;;;;2.73;1.73;;;8.30;99.90;;;;;;4974346;28;20311;-85
2022/10/12 03:23:26;;;;;;;3.47;2.93;;;8.30;99.90;;;;;;4977722;28;20224;-88
2022/10/12 03:25:52;;;;;;;2.07;1.97;;;8.30;99.90;;;;;;4989160;28;20226;-88
2022/10/12 03:28:18;;;;;;;3.40;3.10;;;8.30;99.90;;;;;;4988838;28;20299;-87
2022/10/12 03:30:44;;;;;;;3.77;2.13;;;8.30;99.90;;;;;;4989921;28;20214;-86
2022/10/12 03:33:10;;;;;;;2.13;2.00;;;8.30;99.90;;;;;;4996151;28;20227;-86
2022/10/12 03:35:35;;;;;;;2.03;1.77;;;8.10;99.90;;;;;;4965947;28;20209;-86
2022/10/12 03:38:01;;;;;;;5.57;3.17;;;8.00;99.90;;;;;;4945590;28;20310;-88
2022/10/12 03:40:27;;;;;;;2.50;2.30;;;7.90;99.90;;;;;;5011910;28;20198;-87
2022/10/12 03:42:53;;;;;;;3.10;2.30;;;7.90;99.90;;;;;;4989315;28;20239;-87
2022/10/12 03:45:18;;;;;;;2.70;2.40;;;7.80;99.90;;;;;;4988525;28;20243;-88
2022/10/12 03:47:44;;;;;;;6.10;2.30;;;7.80;99.90;;;;;;4976388;28;20331;-88
2022/10/12 03:50:10;;;;;;;3.77;2.70;;;7.60;99.90;;;;;;4978637;28;20301;-87
2022/10/12 03:52:35;;;;;;;1.77;1.67;;;7.60;99.90;;;;;;5014836;28;20202;-88
2022/10/12 03:55:01;;;;;;;3.33;3.00;;;7.70;99.90;;;;;;5016412;28;20202;-87
2022/10/12 03:57:27;;;;;;;3.57;2.20;;;7.80;99.90;;;;;;4996355;28;20310;-88
2022/10/12 03:59:53;;;;;;;3.57;2.07;;;7.80;99.90;;;;;;4980737;28;20219;-88
2022/10/12 04:02:19;;;;;;;3.20;1.83;;;7.80;99.90;;;;;;4984939;28;20539;-87
2022/10/12 04:04:44;;;;;;;4.07;3.77;;;7.80;99.90;;;;;;4967853;28;20235;-86
2022/10/12 04:07:10;;;;;;;2.57;2.20;;;7.80;99.90;;;;;;4952598;28;20189;-88
2022/10/12 04:09:36;;;;;;;2.83;2.40;;;7.80;99.90;;;;;;4985273;28;20216;-88
2022/10/12 04:12:01;;;;;;;4.37;2.70;;;7.80;99.90;;;;;;4972748;28;20213;-87
2022/10/12 04:14:27;;;;;;;10.33;3.87;;;7.80;99.90;;;;;;4951699;28;20232;-88
2022/10/12 04:16:53;;;;;;;4.50;2.73;;;7.80;99.90;;;;;;4967245;28;20228;-88
2022/10/12 04:19:19;;;;;;;3.10;2.27;;;7.80;99.90;;;;;;4952225;28;20283;-86
2022/10/12 04:21:45;;;;;;;2.13;1.83;;;7.80;99.90;;;;;;4995328;28;20188;-88
2022/10/12 04:24:11;;;;;;;3.13;2.83;;;7.70;99.90;;;;;;5012812;28;20226;-87
2022/10/12 04:26:37;;;;;;;4.57;2.80;;;7.70;99.90;;;;;;4992762;28;20227;-87
2022/10/12 04:29:03;;;;;;;4.50;3.03;;;7.70;99.90;;;;;;4965442;28;20224;-87
2022/10/12 04:31:29;;;;;;;5.03;2.70;;;7.50;99.90;;;;;;4970207;28;20199;-86
2022/10/12 04:33:55;;;;;;;4.13;3.37;;;7.60;99.90;;;;;;4987880;28;20208;-87
2022/10/12 04:36:25;;;;;;;2.53;1.73;;;7.60;99.90;;;;;;4969952;28;20221;-88
2022/10/12 04:38:52;;;;;;;2.80;2.60;;;7.60;99.90;;;;;;5001560;28;20219;-88
2022/10/12 04:41:18;;;;;;;8.07;2.90;;;7.60;99.90;;;;;;4997409;28;20243;-88
2022/10/12 04:43:44;;;;;;;3.13;2.83;;;7.60;99.90;;;;;;5012927;28;20235;-87
2022/10/12 04:46:10;;;;;;;3.30;2.97;;;7.60;99.90;;;;;;5014053;28;20234;-88
2022/10/12 04:48:36;;;;;;;2.73;2.47;;;7.60;99.90;;;;;;5011685;28;20220;-87
2022/10/12 04:51:03;;;;;;;2.73;2.50;;;7.60;99.90;;;;;;4996384;28;20254;-88
2022/10/12 04:53:29;;;;;;;4.20;3.17;;;7.60;99.90;;;;;;4989100;28;20343;-87
2022/10/12 04:55:55;;;;;;;3.43;2.37;;;7.60;99.90;;;;;;4958707;28;20234;-88
2022/10/12 04:58:21;;;;;;;3.23;2.93;;;7.60;99.90;;;;;;4997329;28;20196;-88
2022/10/12 05:00:48;;;;;;;4.33;3.33;;;7.60;99.90;;;;;;4988255;28;20275;-85
2022/10/12 05:03:14;;;;;;;16.00;3.47;;;7.70;99.90;;;;;;4986858;28;20268;-87
2022/10/12 05:05:42;;;;;;;9.53;3.43;;;7.60;99.90;;;;;;4978575;28;20322;-89
2022/10/12 05:08:08;;;;;;;2.47;2.27;;;7.70;99.90;;;;;;4977311;28;20220;-91
2022/10/12 05:10:34;;;;;;;4.10;2.80;;;7.70;99.90;;;;;;4954669;28;20207;-88
2022/10/12 05:13:00;;;;;;;4.13;3.73;;;7.70;99.90;;;;;;4965473;28;20235;-89
2022/10/12 05:15:26;;;;;;;3.93;2.87;;;7.70;99.90;;;;;;4987743;28;20224;-87
2022/10/12 05:17:51;;;;;;;3.20;2.90;;;7.70;99.90;;;;;;4941617;28;20243;-86
2022/10/12 05:20:17;;;;;;;2.57;2.37;;;7.60;99.90;;;;;;4972602;28;21148;-87
2022/10/12 05:22:43;;;;;;;2.27;2.07;;;7.50;99.90;;;;;;4982124;28;20212;-89
2022/10/12 05:25:09;;;;;;;2.70;2.50;;;7.50;99.90;;;;;;4951063;28;20199;-89
2022/10/12 05:27:35;;;;;;;3.17;2.73;;;7.40;99.90;;;;;;4985564;28;20223;-89
2022/10/12 05:30:00;;;;;;;2.10;1.97;;;7.30;99.90;;;;;;4972222;28;20541;-89
2022/10/12 05:32:26;;;;;;;3.03;2.83;;;7.30;99.90;;;;;;4979716;28;20227;-92
2022/10/12 05:34:53;;;;;;;2.93;2.70;;;7.40;99.90;;;;;;4995030;28;20704;-91
2022/10/12 05:37:19;;;;;;;2.57;2.37;;;7.40;99.90;;;;;;4994306;28;20203;-89
2022/10/12 05:39:45;;;;;;;3.30;2.63;;;7.50;99.90;;;;;;4994593;28;20185;-87
2022/10/12 05:42:11;;;;;;;2.10;2.00;;;7.60;99.90;;;;;;4956195;28;20225;-88
2022/10/12 05:44:37;;;;;;;2.53;2.30;;;7.60;99.90;;;;;;4976101;28;20266;-87
2022/10/12 05:47:02;;;;;;;2.43;2.27;;;7.60;99.90;;;;;;4981440;28;20229;-89
2022/10/12 05:49:29;;;;;;;3.10;2.30;;;7.50;99.90;;;;;;4951994;28;20187;-87
2022/10/12 05:51:55;;;;;;;3.10;2.70;;;7.40;99.90;;;;;;5012326;28;20232;-92
2022/10/12 05:54:21;;;;;;;3.27;2.97;;;7.50;99.90;;;;;;4987203;28;20319;-90
2022/10/12 05:56:46;;;;;;;3.27;2.80;;;7.60;99.90;;;;;;4985681;28;20318;-92
2022/10/12 05:59:12;;;;;;;2.37;2.13;;;7.60;99.90;;;;;;4990448;28;20330;-89
2022/10/12 06:01:38;;;;;;;8.67;3.90;;;7.60;99.90;;;;;;4996831;28;20677;-89
2022/10/12 06:04:04;;;;;;;2.17;1.97;;;7.60;99.90;;;;;;4981034;28;20258;-87
2022/10/12 06:06:29;;;;;;;6.80;3.40;;;7.60;99.90;;;;;;4956518;28;20224;-89
2022/10/12 06:08:55;;;;;;;3.50;3.17;;;7.60;99.90;;;;;;4951144;28;20503;-87
2022/10/12 06:11:21;;;;;;;9.27;3.23;;;7.60;99.90;;;;;;4976645;28;20376;-89
2022/10/12 06:13:46;;;;;;;3.07;2.40;;;7.60;99.90;;;;;;4997876;28;20239;-89
2022/10/12 06:16:12;;;;;;;6.27;2.57;;;7.60;99.90;;;;;;4990155;28;20195;-88
2022/10/12 06:18:38;;;;;;;5.40;2.47;;;7.60;99.90;;;;;;4970388;28;20221;-89
2022/10/12 06:21:04;;;;;;;4.23;3.33;;;7.70;99.90;;;;;;4984270;28;20232;-90
2022/10/12 06:23:29;;;;;;;2.17;2.07;;;7.70;99.90;;;;;;4947671;28;20224;-88
2022/10/12 06:25:56;;;;;;;4.33;3.43;;;7.90;99.90;;;;;;4975053;28;20974;-89
2022/10/12 06:28:21;;;;;;;2.80;2.60;;;7.90;99.90;;;;;;4955792;28;20188;-89
2022/10/12 06:30:58;;;;;;;6.60;2.07;;;7.90;99.90;;;;;;4989719;28;20435;-90
2022/10/12 06:33:25;;;;;;;2.47;2.00;;;7.90;99.90;;;;;;4971689;28;20246;-91
2022/10/12 06:35:51;;;;;;;2.50;2.40;;;8.00;99.90;;;;;;4981883;28;20609;-91
2022/10/12 06:38:18;;;;;;;3.13;2.93;;;8.10;99.90;;;;;;4997420;28;20575;-87
2022/10/12 06:40:44;;;;;;;2.43;2.23;;;8.00;99.90;;;;;;4973040;28;20222;-87
2022/10/12 06:43:10;;;;;;;2.20;2.03;;;8.10;99.90;;;;;;4956614;28;20239;-87
2022/10/12 06:45:36;;;;;;;1.50;1.40;;;8.20;99.90;;;;;;4989977;28;20295;-87
2022/10/12 06:48:03;;;;;;;3.40;2.90;;;8.10;99.90;;;;;;4997848;28;20215;-90
2022/10/12 06:50:29;;;;;;;4.03;3.43;;;8.30;99.90;;;;;;4998823;28;20229;-87
2022/10/12 06:52:54;;;;;;;3.63;3.30;;;8.40;99.90;;;;;;4982110;28;20676;-88
2022/10/12 06:55:20;;;;;;;4.23;2.40;;;8.60;99.90;;;;;;4996861;28;20740;-89
2022/10/12 06:57:46;;;;;;;3.33;3.13;;;8.70;99.90;;;;;;5010184;28;20188;-92
2022/10/12 07:00:13;;;;;;;3.97;2.60;;;8.90;99.90;;;;;;5000895;28;20227;-90
2022/10/12 07:02:39;;;;;;;4.57;3.17;;;9.10;99.90;;;;;;5010704;28;20254;-93
2022/10/12 07:05:06;;;;;;;14.40;3.60;;;9.20;99.90;;;;;;4995002;28;20255;-93
2022/10/12 07:07:33;;;;;;;3.10;2.90;;;9.20;99.90;;;;;;4971976;28;20184;-93
2022/10/12 07:09:59;;;;;;;6.87;4.40;;;8.90;99.90;;;;;;4988244;28;20188;-91
2022/10/12 07:12:25;;;;;;;4.07;3.73;;;9.10;99.90;;;;;;4988886;28;20285;-92
2022/10/12 07:14:51;;;;;;;3.57;3.00;;;9.30;99.90;;;;;;4990058;28;20232;-92
2022/10/12 07:17:17;;;;;;;6.27;3.37;;;9.30;99.90;;;;;;4996810;28;20219;-90
2022/10/12 07:19:42;;;;;;;6.93;6.27;;;9.40;99.90;;;;;;4996013;28;20307;-91
2022/10/12 07:22:08;;;;;;;8.73;4.27;;;9.40;99.90;;;;;;4988422;28;20234;-90
2022/10/12 07:24:36;;;;;;;4.20;3.90;;;9.70;99.90;;;;;;4987233;28;20220;-90
2022/10/12 07:27:04;;;;;;;13.27;3.80;;;10.30;99.90;;;;;;4988441;28;20220;-91
2022/10/12 07:29:31;;;;;;;9.03;4.50;;;11.00;99.90;;;;;;4988317;28;20220;-90
2022/10/12 07:31:58;;;;;;;6.77;6.13;;;12.40;99.90;;;;;;4989985;28;20223;-90
2022/10/12 07:34:27;;;;;;;11.70;6.93;;;13.30;99.90;;;;;;4997814;28;20724;-90
2022/10/12 07:36:53;;;;;;;13.40;8.43;;;14.00;99.90;;;;;;4988500;28;20275;-90
2022/10/12 07:39:21;;;;;;;20.80;9.10;;;14.10;99.90;;;;;;4956031;28;20224;-91
2022/10/12 07:41:47;;;;;;;12.67;5.30;;;14.10;99.90;;;;;;4990526;28;20224;-94
2022/10/12 07:44:13;;;;;;;18.20;3.67;;;13.80;99.90;;;;;;4969175;28;20244;-94
2022/10/12 07:46:39;;;;;;;12.20;3.87;;;13.80;99.90;;;;;;4971141;28;20684;-93
2022/10/12 07:49:04;;;;;;;6.17;4.20;;;14.00;99.90;;;;;;4997088;28;20196;-90
2022/10/12 07:51:30;;;;;;;10.27;3.93;;;14.40;99.90;;;;;;4968456;28;20216;-93
2022/10/12 07:53:56;;;;;;;4.63;2.97;;;15.90;99.90;;;;;;4974638;28;20585;-91
2022/10/12 07:56:22;;;;;;;7.53;3.47;;;16.20;99.90;;;;;;5014183;28;20224;-90
2022/10/12 07:58:50;;;;;;;7.30;3.23;;;15.70;99.90;;;;;;5009646;28;20266;-91
2022/10/12 08:01:17;;;;;;;3.27;2.87;;;14.70;99.90;;;;;;4998083;28;20189;-92
2022/10/12 08:03:43;;;;;;;4.63;3.37;;;14.20;99.90;;;;;;4985480;28;20228;-91
2022/10/12 08:06:10;;;;;;;3.10;2.33;;;13.90;99.90;;;;;;5007546;28;20222;-91
2022/10/12 08:08:36;;;;;;;4.20;2.70;;;13.90;99.90;;;;;;4993745;28;20214;-92
2022/10/12 08:11:03;;;;;;;7.63;2.97;;;13.80;99.90;;;;;;4995594;28;20223;-91
2022/10/12 08:13:29;;;;;;;4.30;3.10;;;13.20;99.90;;;;;;4993788;28;20227;-92
2022/10/12 08:15:55;;;;;;;6.50;3.03;;;13.10;99.90;;;;;;4995286;28;20258;-91
2022/10/12 08:18:20;;;;;;;8.70;3.70;;;13.30;99.90;;;;;;5000074;28;20621;-92
2022/10/12 08:20:46;;;;;;;3.53;3.00;;;14.00;99.90;;;;;;4990480;28;20238;-93
2022/10/12 08:23:12;;;;;;;11.33;3.90;;;15.30;99.90;;;;;;4985314;28;20728;-94
2022/10/12 08:25:38;;;;;;;10.07;4.20;;;16.20;99.90;;;;;;4955497;28;20239;-91
2022/10/12 08:28:04;;;;;;;4.17;3.20;;;17.30;99.90;;;;;;4975416;28;20669;-93
2022/10/12 08:30:31;;;;;;;3.30;2.70;;;17.80;99.90;;;;;;4984852;28;20212;-91
2022/10/12 08:32:56;;;;;;;5.63;2.97;;;17.70;99.90;;;;;;4987477;28;20227;-90
2022/10/12 08:35:22;;;;;;;6.07;2.77;;;17.30;99.90;;;;;;4995134;28;20215;-93
2022/10/12 08:37:48;;;;;;;5.43;2.67;;;16.30;99.90;;;;;;5003872;28;20220;-92
2022/10/12 08:40:26;;;;;;;3.60;2.63;;;15.30;99.90;;;;;;4966491;28;20203;-92
2022/10/12 08:43:05;;;;;;;7.93;3.17;;;14.60;99.90;;;;;;4987629;28;20247;-94
2022/10/12 08:45:53;;;;;;;5.23;2.93;;;14.40;99.90;;;;;;4983654;28;20228;-92
2022/10/12 08:48:38;;;;;;;6.60;2.83;;;14.20;99.90;;;;;;4983111;28;20223;-89
2022/10/12 08:51:09;;;;;;;3.13;2.80;;;14.00;99.90;;;;;;4985981;28;20303;-92
2022/10/12 08:53:51;;;;;;;2.90;2.23;;;14.00;99.90;;;;;;4993132;28;20228;-91
2022/10/12 08:56:19;;;;;;;8.67;3.23;;;14.00;99.90;;;;;;4989805;28;20580;-88
2022/10/12 08:58:47;;;;;;;9.47;3.40;;;13.90;99.90;;;;;;4983463;28;20684;-88
2022/10/12 09:01:56;;;;;;;5.70;2.70;;;14.00;99.90;;;;;;4989565;28;20194;-92
2022/10/12 09:04:52;;;;;;;5.27;3.40;;;13.90;99.90;;;;;;4992180;28;20767;-92
2022/10/12 09:07:19;;;;;;;2.70;2.30;;;14.00;99.90;;;;;;4992978;28;20184;-91
2022/10/12 09:10:04;;;;;;;6.67;3.20;;;14.20;99.90;;;;;;4991968;28;20235;-92
2022/10/12 09:12:42;;;;;;;3.73;3.43;;;14.40;99.90;;;;;;5011002;28;20255;-93
2022/10/12 09:15:18;;;;;;;5.77;4.17;;;14.60;99.90;;;;;;4983633;28;20244;-90
2022/10/12 09:17:53;;;;;;;5.30;3.13;;;14.60;99.90;;;;;;4983347;28;20223;-85
2022/10/12 09:20:25;;;;;;;10.27;3.10;;;14.70;99.90;;;;;;4989805;28;20277;-87
2022/10/12 09:22:55;;;;;;;3.80;2.40;;;14.90;99.90;;;;;;4986844;28;20703;-88
2022/10/12 09:25:26;;;;;;;4.57;1.90;;;15.00;99.90;;;;;;4995221;28;20219;-87
2022/10/12 09:27:52;;;;;;;4.10;2.10;;;15.00;99.90;;;;;;5011305;28;20733;-93
2022/10/12 09:30:19;;;;;;;3.97;2.03;;;15.20;99.90;;;;;;5010888;28;20569;-89
2022/10/12 09:32:54;;;;;;;2.80;2.07;;;15.20;99.90;;;;;;4994835;28;20217;-91
2022/10/12 09:35:19;;;;;;;2.63;2.10;;;15.20;99.90;;;;;;4974098;28;20564;-91
2022/10/12 09:37:51;;;;;;;2.07;1.83;;;15.30;99.90;;;;;;4984881;28;20230;-95
2022/10/12 09:40:35;;;;;;;6.57;2.43;;;15.30;99.90;;;;;;4995195;28;20176;-89
2022/10/12 09:43:02;;;;;;;5.10;1.77;;;15.30;99.90;;;;;;5006401;28;20244;-89
2022/10/12 09:45:31;;;;;;;8.47;2.10;;;15.50;99.90;;;;;;4984781;28;20228;-89
2022/10/12 09:48:15;;;;;;;6.37;1.90;;;15.80;99.90;;;;;;4978980;28;20251;-90
2022/10/12 09:50:52;;;;;;;4.27;1.50;;;15.90;99.90;;;;;;4991136;28;20220;-87
2022/10/12 09:53:31;;;;;;;3.03;1.80;;;15.80;99.90;;;;;;4978771;28;20330;-87
2022/10/12 09:56:19;;;;;;;5.07;1.10;;;15.80;99.90;;;;;;5009807;28;20238;-87
2022/10/12 09:59:03;;;;;;;3.73;1.40;;;15.80;99.90;;;;;;5006062;28;20231;-88
2022/10/12 10:01:31;;;;;;;5.50;1.60;;;15.90;99.90;;;;;;4996189;28;20283;-89
2022/10/12 10:04:24;;;;;;;2.47;1.70;;;15.70;99.90;;;;;;4998165;28;20558;-87
2022/10/12 10:06:49;;;;;;;3.67;1.60;;;15.60;99.90;;;;;;4997803;28;20534;-90
2022/10/12 10:09:34;;;;;;;4.03;1.93;;;15.60;99.90;;;;;;4988446;28;20678;-89
2022/10/12 10:12:19;;;;;;;6.37;1.70;;;16.00;99.90;;;;;;4968677;28;20315;-89
2022/10/12 10:14:45;;;;;;;5.90;1.33;;;16.80;99.90;;;;;;5006051;28;20261;-89
2022/10/12 10:17:27;;;;;;;10.27;1.83;;;17.50;99.90;;;;;;4973557;28;20572;-90
2022/10/12 10:19:55;;;;;;;6.43;2.37;;;18.20;99.90;;;;;;4970475;28;20247;-89
2022/10/12 10:22:23;;;;;;;2.50;1.47;;;19.20;99.90;;;;;;4985386;28;20189;-90
2022/10/12 10:24:51;;;;;;;3.60;2.27;;;19.70;99.90;;;;;;5006336;28;20181;-91
2022/10/12 10:27:36;;;;;;;8.50;2.67;;;19.70;99.90;;;;;;4957115;28;20644;-92
2022/10/12 10:30:17;;;;;;;9.53;2.30;;;20.00;99.90;;;;;;4987833;28;20572;-90
2022/10/12 10:32:44;;;;;;;3.80;1.50;;;20.00;99.90;;;;;;5000226;28;20579;-88
2022/10/12 10:35:12;;;;;;;5.33;2.10;;;20.00;99.90;;;;;;4996664;28;20246;-89
2022/10/12 10:37:45;;;;;;;4.10;1.43;;;20.40;99.90;;;;;;5013061;28;20207;-90
2022/10/12 10:40:32;;;;;;;5.37;1.27;;;20.80;99.90;;;;;;4985777;28;20219;-89
2022/10/12 10:43:05;;;;;;;5.63;1.33;;;20.90;99.90;;;;;;4965612;28;20244;-89
2022/10/12 10:45:47;;;;;;;4.70;1.60;;;21.00;99.90;;;;;;4981135;28;20228;-86
2022/10/12 10:48:17;;;;;;;5.03;1.90;;;21.30;99.90;;;;;;4979909;28;20236;-87
2022/10/12 10:50:49;;;;;;;6.03;2.17;;;21.50;99.90;;;;;;5007989;28;20242;-86
2022/10/12 10:53:24;;;;;;;5.97;1.53;;;21.80;99.90;;;;;;5013709;28;20255;-86
2022/10/12 10:56:07;;;;;;;10.33;1.70;;;22.00;99.90;;;;;;4995481;28;20247;-86
2022/10/12 10:58:38;;;;;;;7.17;1.70;;;22.50;99.90;;;;;;4989145;28;20203;-87
2022/10/12 11:01:34;;;;;;;5.63;2.13;;;22.40;99.90;;;;;;4988483;28;20195;-86
2022/10/12 11:04:05;;;;;;;3.80;2.17;;;20.70;99.90;;;;;;4986838;28;20236;-85
2022/10/12 11:06:48;;;;;;;5.30;1.00;;;19.80;99.90;;;;;;4995682;28;20309;-89
2022/10/12 11:09:24;;;;;;;3.23;1.50;;;20.30;99.90;;;;;;4996326;28;20447;-87
2022/10/12 11:12:04;;;;;;;2.40;1.20;;;20.40;99.90;;;;;;4991773;28;20215;-88
2022/10/12 11:14:39;;;;;;;3.70;1.90;;;20.90;99.90;;;;;;4994025;28;20233;-88
2022/10/12 11:17:09;;;;;;;4.03;1.77;;;20.80;99.90;;;;;;4974022;28;20215;-88
2022/10/12 11:19:44;;;;;;;3.13;1.10;;;21.00;99.90;;;;;;4986848;28;20180;-88
2022/10/12 11:22:39;;;;;;;5.93;1.70;;;20.70;99.90;;;;;;5003450;28;20172;-87
2022/10/12 11:25:19;;;;;;;4.20;1.30;;;20.60;99.90;;;;;;4987748;28;20227;-90
2022/10/12 11:27:45;;;;;;;2.87;1.27;;;20.60;99.90;;;;;;4984172;28;20235;-87
2022/10/12 11:30:23;;;;;;;4.77;1.17;;;20.30;99.90;;;;;;4967132;28;20212;-86
2022/10/12 11:32:55;;;;;;;4.17;1.37;;;19.80;99.90;;;;;;4968614;28;20247;-88
2022/10/12 11:35:33;;;;;;;4.87;1.80;;;18.80;99.90;;;;;;4967878;28;20244;-90
2022/10/12 11:38:07;;;;;;;4.93;1.20;;;19.00;99.90;;;;;;4967701;28;20212;-91
2022/10/12 11:40:45;;;;;;;5.00;1.33;;;19.60;99.90;;;;;;4967808;28;20180;-90
2022/10/12 11:43:27;;;;;;;2.43;1.10;;;19.60;99.90;;;;;;4969553;28;20352;-90
2022/10/12 11:45:59;;;;;;;3.30;1.10;;;19.50;99.90;;;;;;4968335;28;20211;-93
2022/10/12 11:48:43;;;;;;;5.30;1.67;;;18.90;99.90;;;;;;5000545;28;20241;-92
2022/10/12 11:51:11;;;;;;;2.70;1.47;;;18.90;99.90;;;;;;4968278;28;20220;-93
2022/10/12 11:53:49;;;;;;;5.03;1.97;;;18.50;99.90;;;;;;4985356;28;20228;-92
2022/10/12 11:56:30;;;;;;;3.40;1.00;;;18.50;99.90;;;;;;4982843;28;20225;-87
2022/10/12 11:59:12;;;;;;;2.90;1.03;;;18.60;99.90;;;;;;4983065;28;20621;-90
2022/10/12 12:01:59;;;;;;;5.27;1.20;;;18.20;99.90;;;;;;4965874;28;20642;-86
2022/10/12 12:04:34;;;;;;;2.47;0.83;;;18.00;99.90;;;;;;4968352;28;20232;-88
2022/10/12 12:07:25;;;;;;;3.00;1.17;;;17.70;99.90;;;;;;4968044;28;20184;-86
2022/10/12 12:09:52;;;;;;;7.33;1.23;;;17.60;99.90;;;;;;4997659;28;20224;-89
2022/10/12 12:12:25;;;;;;;5.17;1.73;;;17.60;99.90;;;;;;4981695;28;20224;-86
2022/10/12 12:14:54;;;;;;;4.53;1.00;;;17.80;99.90;;;;;;4998851;28;20225;-87
2022/10/12 12:17:20;;;;;;;3.00;1.27;;;17.70;99.90;;;;;;4973313;28;20220;-86
2022/10/12 12:20:24;;;;;;;7.57;1.93;;;17.80;99.90;;;;;;4998245;28;20220;-87
2022/10/12 12:22:53;;;;;;;5.40;1.20;;;17.90;99.90;;;;;;4956940;28;20666;-90
2022/10/12 12:25:28;;;;;;;2.60;1.30;;;18.20;99.90;;;;;;4965370;28;20311;-85
2022/10/12 12:27:59;;;;;;;3.50;1.47;;;18.10;99.90;;;;;;4971039;28;20190;-89
2022/10/12 12:30:35;;;;;;;3.30;1.40;;;17.90;99.90;;;;;;4973639;28;20288;-87
2022/10/12 12:33:19;;;;;;;2.13;1.40;;;17.70;99.90;;;;;;4966540;28;20692;-87
2022/10/12 12:36:28;;;;;;;3.80;1.07;;;17.40;99.90;;;;;;4981445;28;20387;-85
2022/10/12 12:38:55;;;;;;;4.33;1.53;;;16.90;99.90;;;;;;4997769;28;20299;-86
2022/10/12 12:41:25;;;;;;;8.10;1.27;;;16.90;99.90;;;;;;4965365;28;20569;-86
2022/10/12 12:43:57;;;;;;;7.00;1.10;;;17.00;99.90;;;;;;4965427;28;20240;-87
2022/10/12 12:46:25;;;;;;;5.13;1.20;;;17.00;99.90;;;;;;4980222;28;20184;-85
2022/10/12 12:48:51;;;;;;;4.37;1.47;;;17.00;99.90;;;;;;4965473;28;20189;-86
2022/10/12 12:51:23;;;;;;;2.83;1.47;;;17.10;99.90;;;;;;4966935;28;20599;-87
2022/10/12 12:53:50;;;;;;;2.23;1.67;;;17.10;99.90;;;;;;4966959;28;20232;-88
2022/10/12 12:56:50;;;;;;;1.90;1.57;;;16.80;99.90;;;;;;4966607;28;20282;-88
2022/10/12 12:59:28;;;;;;;4.17;1.63;;;16.40;99.90;;;;;;4966904;28;20221;-88
2022/10/12 13:01:56;;;;;;;2.53;1.17;;;16.40;99.90;;;;;;4981159;28;20224;-90
2022/10/12 13:04:39;;;;;;;8.73;1.63;;;16.40;99.90;;;;;;4981575;28;20204;-86
2022/10/12 13:07:14;;;;;;;2.13;1.47;;;16.10;99.90;;;;;;4967718;28;20658;-86
2022/10/12 13:09:55;;;;;;;5.00;2.00;;;15.70;99.90;;;;;;4997903;28;20216;-89
2022/10/12 13:12:27;;;;;;;3.87;1.93;;;15.60;99.90;;;;;;4966597;28;20307;-88